createdAt,value
2023-02-11T00:00:19.409Z,0
2023-02-11T00:01:36.514Z,0
2023-02-11T00:02:53.619Z,0
2023-02-11T00:04:10.723Z,0
2023-02-11T00:05:27.829Z,0
2023-02-11T00:06:44.934Z,0
2023-02-11T00:08:02.039Z,0
2023-02-11T00:09:19.144Z,0
2023-02-11T00:10:36.249Z,0
2023-02-11T00:11:52.370Z,0
2023-02-11T00:13:09.475Z,0
2023-02-11T00:14:26.581Z,0
2023-02-11T00:15:43.686Z,0
2023-02-11T00:17:00.791Z,0
2023-02-11T00:18:17.896Z,0
2023-02-11T00:19:35.001Z,0
2023-02-11T00:20:52.106Z,0
2023-02-11T00:22:09.211Z,0
2023-02-11T00:23:26.316Z,0
2023-02-11T00:24:43.421Z,0
2023-02-11T00:26:00.526Z,0
2023-02-11T00:27:17.632Z,0
2023-02-11T00:28:33.753Z,0
2023-02-11T00:29:50.858Z,0
2023-02-11T00:31:06.979Z,0
2023-02-11T00:32:24.084Z,0
2023-02-11T00:33:40.210Z,0
2023-02-11T00:34:56.332Z,0
2023-02-11T00:36:12.458Z,0
2023-02-11T00:37:28.579Z,0
2023-02-11T00:38:45.684Z,0
2023-02-11T00:40:02.789Z,0
2023-02-11T00:41:19.894Z,0
2023-02-11T00:42:36.999Z,0
2023-02-11T00:43:54.104Z,0
2023-02-11T00:45:11.210Z,0
2023-02-11T00:46:28.315Z,0
2023-02-11T00:47:45.420Z,0
2023-02-11T00:49:02.525Z,0
2023-02-11T00:50:19.630Z,0
2023-02-11T00:51:36.735Z,0
2023-02-11T00:52:53.840Z,0
2023-02-11T00:54:09.961Z,0
2023-02-11T00:55:27.066Z,0
2023-02-11T00:56:44.171Z,0
2023-02-11T00:58:01.276Z,0
2023-02-11T00:59:18.381Z,0
2023-02-11T01:00:35.486Z,0
2023-02-11T01:01:52.591Z,0
2023-02-11T01:03:08.717Z,0
2023-02-11T01:04:24.838Z,0
2023-02-11T01:05:40.964Z,0
2023-02-11T01:06:57.085Z,0
2023-02-11T01:08:14.190Z,0
2023-02-11T01:09:31.295Z,0
2023-02-11T01:10:48.401Z,0
2023-02-11T01:12:05.506Z,0
2023-02-11T01:13:22.611Z,0
2023-02-11T01:14:39.716Z,0
2023-02-11T01:15:56.821Z,0
2023-02-11T01:17:13.926Z,0
2023-02-11T01:18:31.031Z,0
2023-02-11T01:19:48.136Z,0
2023-02-11T01:21:05.241Z,0
2023-02-11T01:22:22.346Z,0
2023-02-11T01:23:38.467Z,0
2023-02-11T01:24:55.572Z,0
2023-02-11T01:26:12.677Z,0
2023-02-11T01:27:29.782Z,0
2023-02-11T01:28:46.887Z,0
2023-02-11T01:30:03.992Z,0
2023-02-11T01:31:21.097Z,0
2023-02-11T01:32:37.223Z,0
2023-02-11T01:33:53.345Z,0
2023-02-11T01:35:09.471Z,0
2023-02-11T01:36:25.592Z,0
2023-02-11T01:37:42.697Z,0
2023-02-11T01:38:59.802Z,0
2023-02-11T01:40:16.907Z,0
2023-02-11T01:41:34.013Z,0
2023-02-11T01:42:51.118Z,0
2023-02-11T01:44:08.223Z,0
2023-02-11T01:45:25.328Z,0
2023-02-11T01:46:42.433Z,0
2023-02-11T01:47:59.538Z,0
2023-02-11T01:49:16.643Z,0
2023-02-11T01:50:33.748Z,0
2023-02-11T01:51:50.853Z,0
2023-02-11T01:53:06.973Z,0
2023-02-11T01:54:24.078Z,0
2023-02-11T01:55:41.183Z,0
2023-02-11T01:56:58.288Z,0
2023-02-11T01:58:15.393Z,0
2023-02-11T01:59:32.498Z,0
2023-02-11T02:00:49.603Z,0
2023-02-11T02:02:05.729Z,0
2023-02-11T02:03:21.850Z,0
2023-02-11T02:04:37.976Z,0
2023-02-11T02:05:54.097Z,0
2023-02-11T02:07:11.202Z,0
2023-02-11T02:08:28.307Z,0
2023-02-11T02:09:45.412Z,0
2023-02-11T02:11:02.516Z,0
2023-02-11T02:12:19.621Z,0
2023-02-11T02:13:36.726Z,0
2023-02-11T02:14:53.831Z,0
2023-02-11T02:16:10.936Z,0
2023-02-11T02:17:28.041Z,0
2023-02-11T02:18:45.146Z,0
2023-02-11T02:20:02.251Z,0
2023-02-11T02:21:19.355Z,0
2023-02-11T02:22:35.476Z,0
2023-02-11T02:23:52.581Z,0
2023-02-11T02:25:09.686Z,0
2023-02-11T02:26:26.791Z,0
2023-02-11T02:27:43.896Z,0
2023-02-11T02:29:01.001Z,0
2023-02-11T02:31:35.210Z,0
2023-02-11T02:32:51.337Z,0
2023-02-11T02:34:07.458Z,0
2023-02-11T02:35:24.562Z,0
2023-02-11T02:36:40.688Z,0
2023-02-11T02:37:56.809Z,0
2023-02-11T02:39:13.914Z,0
2023-02-11T02:40:31.019Z,0
2023-02-11T02:41:48.124Z,0
2023-02-11T02:43:05.229Z,0
2023-02-11T02:44:22.334Z,0
2023-02-11T02:45:39.439Z,0
2023-02-11T02:46:56.544Z,0
2023-02-11T02:48:13.648Z,0
2023-02-11T02:49:30.753Z,0
2023-02-11T02:50:47.858Z,0
2023-02-11T02:52:04.963Z,0
2023-02-11T02:53:22.068Z,0
2023-02-11T02:54:38.189Z,0
2023-02-11T02:55:55.294Z,0
2023-02-11T02:57:12.399Z,0
2023-02-11T02:58:29.504Z,0
2023-02-11T02:59:46.609Z,0
2023-02-11T03:01:03.713Z,0
2023-02-11T03:02:20.818Z,0
2023-02-11T03:03:37.923Z,0
2023-02-11T03:04:55.028Z,0
2023-02-11T03:06:12.133Z,0
2023-02-11T03:07:29.238Z,0
2023-02-11T03:08:46.344Z,0
2023-02-11T03:10:03.449Z,0
2023-02-11T03:11:19.570Z,0
2023-02-11T03:12:36.675Z,0
2023-02-11T03:13:53.780Z,0
2023-02-11T03:15:10.885Z,0
2023-02-11T03:16:27.990Z,0
2023-02-11T03:17:45.095Z,0
2023-02-11T03:19:02.200Z,0
2023-02-11T03:20:19.305Z,0
2023-02-11T03:21:36.410Z,0
2023-02-11T03:22:53.515Z,0
2023-02-11T03:24:10.620Z,0
2023-02-11T03:25:27.726Z,0
2023-02-11T03:26:44.831Z,0
2023-02-11T03:28:00.952Z,0
2023-02-11T03:29:18.057Z,0
2023-02-11T03:30:35.162Z,0
2023-02-11T03:31:51.288Z,0
2023-02-11T03:33:07.409Z,0
2023-02-11T03:34:23.535Z,0
2023-02-11T03:35:39.656Z,0
2023-02-11T03:36:56.761Z,0
2023-02-11T03:38:13.866Z,0
2023-02-11T03:39:30.971Z,0
2023-02-11T03:40:48.076Z,0
2023-02-11T03:42:05.180Z,0
2023-02-11T03:43:22.286Z,0
2023-02-11T03:44:39.391Z,0
2023-02-11T03:45:56.495Z,0
2023-02-11T03:47:13.600Z,0
2023-02-11T03:48:30.705Z,0
2023-02-11T03:49:47.810Z,0
2023-02-11T03:51:04.915Z,0
2023-02-11T03:52:21.036Z,0
2023-02-11T03:53:38.141Z,0
2023-02-11T03:54:55.246Z,0
2023-02-11T03:56:12.351Z,0
2023-02-11T03:57:29.456Z,0
2023-02-11T03:58:46.561Z,0
2023-02-11T04:00:03.665Z,0
2023-02-11T04:01:19.792Z,0
2023-02-11T04:02:35.912Z,0
2023-02-11T04:03:52.039Z,0
2023-02-11T04:05:08.160Z,0
2023-02-11T04:06:25.264Z,0
2023-02-11T04:07:42.369Z,0
2023-02-11T04:08:59.474Z,0
2023-02-11T04:10:16.579Z,0
2023-02-11T04:11:33.684Z,0
2023-02-11T04:12:50.789Z,0
2023-02-11T04:14:07.894Z,0
2023-02-11T04:15:24.999Z,0
2023-02-11T04:16:42.103Z,0
2023-02-11T04:17:59.208Z,0
2023-02-11T04:19:16.313Z,0
2023-02-11T04:20:33.418Z,0
2023-02-11T04:21:49.539Z,0
2023-02-11T04:23:06.645Z,0
2023-02-11T04:24:23.750Z,0
2023-02-11T04:26:57.959Z,0
2023-02-11T04:28:15.064Z,0
2023-02-11T04:29:32.169Z,0
2023-02-11T04:30:49.274Z,0
2023-02-11T04:32:06.379Z,0
2023-02-11T04:33:23.484Z,0
2023-02-11T04:34:39.610Z,0
2023-02-11T04:35:55.731Z,0
2023-02-11T04:37:12.836Z,0
2023-02-11T04:38:28.962Z,0
2023-02-11T04:39:45.083Z,0
2023-02-11T04:41:02.188Z,0
2023-02-11T04:42:19.293Z,0
2023-02-11T04:43:36.398Z,0
2023-02-11T04:44:53.503Z,0
2023-02-11T04:46:10.608Z,0
2023-02-11T04:47:27.713Z,0
2023-02-11T04:48:43.834Z,0
2023-02-11T04:50:00.939Z,0
2023-02-11T04:51:18.044Z,0
2023-02-11T04:52:35.149Z,0
2023-02-11T04:53:52.254Z,0
2023-02-11T04:55:09.359Z,0
2023-02-11T04:56:26.463Z,0
2023-02-11T04:57:43.568Z,0
2023-02-11T04:59:00.674Z,0
2023-02-11T05:00:17.779Z,0
2023-02-11T05:01:34.884Z,0
2023-02-11T05:02:51.989Z,0
2023-02-11T05:04:09.094Z,0
2023-02-11T05:05:25.220Z,0
2023-02-11T05:06:41.341Z,0
2023-02-11T05:07:58.446Z,0
2023-02-11T05:09:15.551Z,0
2023-02-11T05:10:31.677Z,0
2023-02-11T05:11:47.798Z,0
2023-02-11T05:13:04.904Z,0
2023-02-11T05:14:22.009Z,0
2023-02-11T05:15:39.114Z,0
2023-02-11T05:16:56.219Z,0
2023-02-11T05:18:13.324Z,0
2023-02-11T05:19:30.429Z,0
2023-02-11T05:20:47.534Z,0
2023-02-11T05:22:04.639Z,0
2023-02-11T05:23:21.744Z,0
2023-02-11T05:24:38.849Z,0
2023-02-11T05:25:55.954Z,0
2023-02-11T05:27:13.060Z,0
2023-02-11T05:28:29.181Z,0
2023-02-11T05:29:46.286Z,0
2023-02-11T05:31:03.391Z,0
2023-02-11T05:32:20.496Z,0
2023-02-11T05:33:37.601Z,0
2023-02-11T05:34:54.706Z,0
2023-02-11T05:36:11.811Z,0
2023-02-11T05:37:28.916Z,0
2023-02-11T05:38:46.021Z,0
2023-02-11T05:40:03.126Z,0
2023-02-11T05:41:20.231Z,0
2023-02-11T05:42:36.357Z,0
2023-02-11T05:43:52.478Z,0
2023-02-11T05:45:08.604Z,0
2023-02-11T05:46:24.725Z,0
2023-02-11T05:47:41.830Z,0
2023-02-11T05:48:58.935Z,0
2023-02-11T05:50:16.040Z,0
2023-02-11T05:51:33.145Z,0
2023-02-11T05:52:50.250Z,0
2023-02-11T05:54:07.355Z,0
2023-02-11T05:55:24.460Z,0
2023-02-11T05:56:41.565Z,0
2023-02-11T05:57:58.670Z,0
2023-02-11T05:59:15.775Z,0
2023-02-11T06:00:32.880Z,0
2023-02-11T06:01:49.985Z,0
2023-02-11T06:03:06.106Z,0
2023-02-11T06:04:23.211Z,0
2023-02-11T06:05:40.316Z,0
2023-02-11T06:06:57.421Z,0
2023-02-11T06:08:14.526Z,0
2023-02-11T06:09:31.631Z,0
2023-02-11T06:10:48.736Z,0
2023-02-11T06:12:04.862Z,0
2023-02-11T06:13:20.983Z,0
2023-02-11T06:14:37.110Z,0
2023-02-11T06:15:53.231Z,0
2023-02-11T06:17:10.336Z,0
2023-02-11T06:18:27.441Z,0
2023-02-11T06:19:44.546Z,0
2023-02-11T06:21:01.651Z,0
2023-02-11T06:22:18.756Z,0
2023-02-11T06:23:35.861Z,0
2023-02-11T06:24:52.966Z,0
2023-02-11T06:26:10.070Z,4
2023-02-11T06:27:27.175Z,4
2023-02-11T06:28:44.281Z,4
2023-02-11T06:30:01.386Z,4
2023-02-11T06:31:18.490Z,4
2023-02-11T06:32:34.611Z,4
2023-02-11T06:33:51.716Z,4
2023-02-11T06:35:08.821Z,4
2023-02-11T06:36:25.926Z,8
2023-02-11T06:37:43.031Z,8
2023-02-11T06:39:00.136Z,8
2023-02-11T06:40:17.241Z,12
2023-02-11T06:41:33.367Z,16
2023-02-11T06:42:49.488Z,16
2023-02-11T06:44:05.615Z,20
2023-02-11T06:45:21.736Z,24
2023-02-11T06:46:38.840Z,28
2023-02-11T06:47:55.945Z,32
2023-02-11T06:49:13.050Z,32
2023-02-11T06:50:30.155Z,40
2023-02-11T06:51:47.260Z,40
2023-02-11T06:53:04.365Z,48
2023-02-11T06:54:21.470Z,52
2023-02-11T06:55:38.575Z,56
2023-02-11T06:56:55.680Z,64
2023-02-11T06:58:12.785Z,72
2023-02-11T06:59:29.890Z,84
2023-02-11T07:00:46.994Z,88
2023-02-11T07:02:03.115Z,100
2023-02-11T07:03:20.220Z,108
2023-02-11T07:04:37.325Z,108
2023-02-11T07:05:54.430Z,116
2023-02-11T07:07:11.535Z,124
2023-02-11T07:08:28.640Z,140
2023-02-11T07:09:45.745Z,148
2023-02-11T07:11:01.871Z,172
2023-02-11T07:12:17.992Z,180
2023-02-11T07:13:34.119Z,188
2023-02-11T07:14:50.240Z,204
2023-02-11T07:16:07.345Z,224
2023-02-11T07:17:24.450Z,228
2023-02-11T07:18:41.554Z,248
2023-02-11T07:19:58.659Z,280
2023-02-11T07:21:15.764Z,304
2023-02-11T07:22:32.870Z,328
2023-02-11T07:23:49.975Z,352
2023-02-11T07:25:07.080Z,356
2023-02-11T07:26:24.185Z,372
2023-02-11T07:27:41.290Z,384
2023-02-11T07:28:58.394Z,456
2023-02-11T07:30:15.499Z,488
2023-02-11T07:31:31.620Z,496
2023-02-11T07:32:48.725Z,516
2023-02-11T07:34:05.831Z,544
2023-02-11T07:35:22.935Z,604
2023-02-11T07:36:40.040Z,696
2023-02-11T07:37:57.145Z,664
2023-02-11T07:39:14.250Z,604
2023-02-11T07:40:30.376Z,624
2023-02-11T07:41:46.497Z,680
2023-02-11T07:43:03.602Z,660
2023-02-11T07:44:19.728Z,696
2023-02-11T07:45:35.849Z,656
2023-02-11T07:46:52.954Z,692
2023-02-11T07:48:10.059Z,696
2023-02-11T07:49:27.164Z,672
2023-02-11T07:50:44.269Z,704
2023-02-11T07:52:01.374Z,640
2023-02-11T07:53:18.479Z,700
2023-02-11T07:54:35.584Z,688
2023-02-11T07:55:52.689Z,700
2023-02-11T07:57:09.794Z,720
2023-02-11T07:58:26.898Z,712
2023-02-11T07:59:44.004Z,776
2023-02-11T08:01:01.109Z,788
2023-02-11T08:02:17.230Z,752
2023-02-11T08:03:34.335Z,788
2023-02-11T08:04:51.439Z,832
2023-02-11T08:06:08.544Z,836
2023-02-11T08:07:25.649Z,816
2023-02-11T08:08:42.754Z,844
2023-02-11T08:09:59.859Z,908
2023-02-11T08:11:15.985Z,828
2023-02-11T08:12:32.106Z,732
2023-02-11T08:13:48.232Z,740
2023-02-11T08:15:04.353Z,740
2023-02-11T08:17:38.563Z,740
2023-02-11T08:18:55.668Z,720
2023-02-11T08:20:12.773Z,760
2023-02-11T08:21:29.878Z,788
2023-02-11T08:22:46.983Z,776
2023-02-11T08:24:04.088Z,828
2023-02-11T08:25:21.193Z,820
2023-02-11T08:26:38.298Z,844
2023-02-11T08:27:55.403Z,812
2023-02-11T08:29:12.508Z,836
2023-02-11T08:30:29.612Z,836
2023-02-11T08:31:45.733Z,816
2023-02-11T08:33:02.838Z,796
2023-02-11T08:34:19.943Z,824
2023-02-11T08:35:37.048Z,800
2023-02-11T08:36:54.153Z,836
2023-02-11T08:38:11.258Z,868
2023-02-11T08:39:28.363Z,888
2023-02-11T08:40:45.468Z,940
2023-02-11T08:42:01.594Z,932
2023-02-11T08:43:17.715Z,948
2023-02-11T08:44:33.841Z,940
2023-02-11T08:45:49.962Z,932
2023-02-11T08:47:07.067Z,868
2023-02-11T08:48:24.172Z,876
2023-02-11T08:49:41.277Z,900
2023-02-11T08:50:58.381Z,904
2023-02-11T08:52:15.486Z,944
2023-02-11T08:53:32.592Z,892
2023-02-11T08:54:49.696Z,864
2023-02-11T08:56:06.801Z,896
2023-02-11T08:57:23.906Z,948
2023-02-11T08:58:41.011Z,996
2023-02-11T08:59:58.116Z,968
2023-02-11T09:01:15.221Z,948
2023-02-11T09:03:48.447Z,976
2023-02-11T09:05:05.552Z,976
2023-02-11T09:06:21.673Z,992
2023-02-11T09:07:38.778Z,996
2023-02-11T09:08:55.883Z,1044
2023-02-11T09:10:12.988Z,984
2023-02-11T09:11:30.093Z,960
2023-02-11T09:12:46.219Z,984
2023-02-11T09:14:02.340Z,1008
2023-02-11T09:15:19.445Z,1012
2023-02-11T09:16:35.571Z,1060
2023-02-11T09:17:51.692Z,988
2023-02-11T09:19:08.797Z,912
2023-02-11T09:20:25.902Z,896
2023-02-11T09:21:43.007Z,892
2023-02-11T09:23:00.112Z,916
2023-02-11T09:24:17.218Z,972
2023-02-11T09:25:34.323Z,996
2023-02-11T09:26:51.428Z,988
2023-02-11T09:28:08.533Z,1056
2023-02-11T09:29:25.637Z,1044
2023-02-11T09:30:42.742Z,1100
2023-02-11T09:31:59.848Z,1060
2023-02-11T09:33:16.952Z,1080
2023-02-11T09:34:33.073Z,1088
2023-02-11T09:35:50.178Z,1064
2023-02-11T09:37:07.283Z,1032
2023-02-11T09:38:24.388Z,1040
2023-02-11T09:39:41.493Z,1056
2023-02-11T09:40:58.598Z,1052
2023-02-11T09:42:15.702Z,1060
2023-02-11T09:43:31.829Z,1072
2023-02-11T09:44:47.950Z,1128
2023-02-11T09:46:04.076Z,1216
2023-02-11T09:47:20.197Z,1236
2023-02-11T09:48:37.302Z,1264
2023-02-11T09:49:54.407Z,1324
2023-02-11T09:51:11.512Z,1292
2023-02-11T09:52:28.616Z,1288
2023-02-11T09:53:45.721Z,1204
2023-02-11T09:55:02.826Z,1240
2023-02-11T09:56:19.931Z,1364
2023-02-11T09:57:37.036Z,1332
2023-02-11T09:58:54.141Z,1260
2023-02-11T10:00:11.246Z,1240
2023-02-11T10:01:28.351Z,1320
2023-02-11T10:02:45.456Z,1464
2023-02-11T10:04:01.577Z,1412
2023-02-11T10:05:18.682Z,1312
2023-02-11T10:06:35.787Z,1344
2023-02-11T10:07:52.891Z,1228
2023-02-11T10:09:09.996Z,1292
2023-02-11T10:10:27.102Z,1312
2023-02-11T10:11:44.206Z,1348
2023-02-11T10:13:00.333Z,1296
2023-02-11T10:14:16.454Z,1400
2023-02-11T10:15:33.558Z,1576
2023-02-11T10:16:50.663Z,1856
2023-02-11T10:18:06.790Z,2008
2023-02-11T10:19:22.911Z,2068
2023-02-11T10:20:40.015Z,2036
2023-02-11T10:21:57.120Z,2048
2023-02-11T10:23:14.225Z,2104
2023-02-11T10:24:31.330Z,2216
2023-02-11T10:25:48.435Z,2268
2023-02-11T10:27:05.540Z,2224
2023-02-11T10:28:22.645Z,2292
2023-02-11T10:29:39.750Z,2224
2023-02-11T10:30:56.855Z,2140
2023-02-11T10:32:13.960Z,2132
2023-02-11T10:33:31.065Z,2108
2023-02-11T10:34:48.169Z,2016
2023-02-11T10:36:04.290Z,1876
2023-02-11T10:37:21.396Z,1888
2023-02-11T10:38:38.501Z,1832
2023-02-11T10:39:55.605Z,1864
2023-02-11T10:41:12.710Z,1840
2023-02-11T10:42:29.815Z,1744
2023-02-11T10:43:46.920Z,1820
2023-02-11T10:45:04.025Z,1888
2023-02-11T10:46:21.130Z,1792
2023-02-11T10:47:38.235Z,1996
2023-02-11T10:48:55.340Z,2284
2023-02-11T10:50:12.444Z,2180
2023-02-11T10:51:29.549Z,2100
2023-02-11T10:52:45.670Z,1996
2023-02-11T10:54:02.775Z,2072
2023-02-11T10:55:19.880Z,2016
2023-02-11T10:56:36.985Z,1928
2023-02-11T10:57:54.090Z,1924
2023-02-11T10:59:11.195Z,1940
2023-02-11T11:00:28.300Z,1836
2023-02-11T11:01:45.404Z,1676
2023-02-11T11:03:02.509Z,1660
2023-02-11T11:04:19.614Z,1848
2023-02-11T11:05:35.740Z,1952
2023-02-11T11:06:51.861Z,1936
2023-02-11T11:08:08.966Z,1880
2023-02-11T11:09:26.071Z,1692
2023-02-11T11:10:43.176Z,1568
2023-02-11T11:11:59.302Z,1520
2023-02-11T11:13:15.423Z,1640
2023-02-11T11:14:32.528Z,1740
2023-02-11T11:15:49.633Z,1724
2023-02-11T11:17:06.738Z,1728
2023-02-11T11:18:23.842Z,1608
2023-02-11T11:19:40.947Z,1540
2023-02-11T11:20:58.052Z,1552
2023-02-11T11:22:15.157Z,1600
2023-02-11T11:23:32.262Z,1552
2023-02-11T11:24:49.367Z,1576
2023-02-11T11:26:06.472Z,1432
2023-02-11T11:27:23.577Z,1508
2023-02-11T11:28:40.681Z,1616
2023-02-11T11:29:56.802Z,1668
2023-02-11T11:31:13.907Z,1624
2023-02-11T11:32:31.012Z,1668
2023-02-11T11:33:48.115Z,1680
2023-02-11T11:35:05.220Z,1696
2023-02-11T11:36:22.325Z,1604
2023-02-11T11:37:39.430Z,1480
2023-02-11T11:38:56.534Z,1452
2023-02-11T11:40:13.639Z,1544
2023-02-11T11:41:30.744Z,1644
2023-02-11T11:42:47.850Z,1652
2023-02-11T11:44:04.955Z,1692
2023-02-11T11:45:21.081Z,1700
2023-02-11T11:46:37.202Z,1876
2023-02-11T11:47:54.307Z,1856
2023-02-11T11:49:11.412Z,1872
2023-02-11T11:50:28.517Z,1896
2023-02-11T11:51:44.643Z,1948
2023-02-11T11:53:00.764Z,2264
2023-02-11T11:54:17.868Z,2188
2023-02-11T11:55:34.973Z,2168
2023-02-11T11:56:52.078Z,2052
2023-02-11T11:58:09.183Z,1940
2023-02-11T11:59:26.288Z,2060
2023-02-11T12:00:43.393Z,2204
2023-02-11T12:02:00.498Z,2236
2023-02-11T12:03:17.603Z,2376
2023-02-11T12:04:34.707Z,2272
2023-02-11T12:05:51.812Z,2356
2023-02-11T12:07:08.917Z,2356
2023-02-11T12:08:26.022Z,2360
2023-02-11T12:09:42.143Z,2388
2023-02-11T12:10:59.248Z,2240
2023-02-11T12:12:16.352Z,2204
2023-02-11T12:13:33.459Z,2136
2023-02-11T12:14:50.563Z,2280
2023-02-11T12:16:07.668Z,2484
2023-02-11T12:17:24.773Z,2524
2023-02-11T12:18:41.878Z,2400
2023-02-11T12:19:58.983Z,2636
2023-02-11T12:21:16.088Z,2880
2023-02-11T12:22:32.214Z,2804
2023-02-11T12:23:48.335Z,3152
2023-02-11T12:25:05.440Z,3004
2023-02-11T12:26:22.545Z,2960
2023-02-11T12:27:39.650Z,2996
2023-02-11T12:28:56.755Z,2852
2023-02-11T12:30:12.881Z,3048
2023-02-11T12:31:29.001Z,2868
2023-02-11T12:32:46.106Z,2732
2023-02-11T12:34:03.211Z,2540
2023-02-11T12:35:20.316Z,2532
2023-02-11T12:36:37.421Z,2416
2023-02-11T12:37:54.525Z,2360
2023-02-11T12:39:11.630Z,2188
2023-02-11T12:40:28.735Z,2216
2023-02-11T12:41:45.840Z,2208
2023-02-11T12:43:02.945Z,2180
2023-02-11T12:44:20.050Z,2160
2023-02-11T12:45:37.154Z,2048
2023-02-11T12:46:54.259Z,2172
2023-02-11T12:48:10.380Z,2000
2023-02-11T12:49:27.485Z,1908
2023-02-11T12:50:44.590Z,1892
2023-02-11T12:52:01.695Z,1912
2023-02-11T12:53:18.799Z,1880
2023-02-11T12:54:35.904Z,1772
2023-02-11T12:55:53.009Z,1720
2023-02-11T12:57:09.135Z,1720
2023-02-11T12:58:25.256Z,1736
2023-02-11T12:59:41.382Z,1752
2023-02-11T13:00:57.503Z,2028
2023-02-11T13:02:14.608Z,2032
2023-02-11T13:03:31.712Z,1936
2023-02-11T13:04:48.817Z,1992
2023-02-11T13:06:05.922Z,1936
2023-02-11T13:07:23.027Z,2120
2023-02-11T13:08:40.132Z,2132
2023-02-11T13:09:57.237Z,2336
2023-02-11T13:11:14.341Z,2600
2023-02-11T13:12:31.446Z,2344
2023-02-11T13:13:48.551Z,2232
2023-02-11T13:15:05.656Z,2424
2023-02-11T13:16:22.761Z,2348
2023-02-11T13:17:38.882Z,2648
2023-02-11T13:18:55.986Z,2212
2023-02-11T13:20:13.091Z,1888
2023-02-11T13:21:30.196Z,1516
2023-02-11T13:22:47.300Z,1684
2023-02-11T13:24:03.421Z,1732
2023-02-11T13:25:20.526Z,1904
2023-02-11T13:26:37.631Z,1964
2023-02-11T13:27:54.735Z,1528
2023-02-11T13:29:11.840Z,1564
2023-02-11T13:30:28.945Z,1656
2023-02-11T13:31:46.050Z,1444
2023-02-11T13:33:03.155Z,1392
2023-02-11T13:34:20.259Z,1356
2023-02-11T13:35:37.364Z,1496
2023-02-11T13:36:54.469Z,1852
2023-02-11T13:38:11.573Z,1924
2023-02-11T13:39:28.679Z,1728
2023-02-11T13:40:44.799Z,1568
2023-02-11T13:42:01.904Z,1672
2023-02-11T13:43:19.009Z,1712
2023-02-11T13:44:36.114Z,1612
2023-02-11T13:45:53.218Z,1648
2023-02-11T13:47:10.323Z,1636
2023-02-11T13:48:27.428Z,1584
2023-02-11T13:49:44.532Z,1660
2023-02-11T13:51:01.638Z,1840
2023-02-11T13:52:18.742Z,1528
2023-02-11T13:53:35.847Z,1540
2023-02-11T13:54:52.952Z,1660
2023-02-11T13:56:10.057Z,1572
2023-02-11T13:57:26.177Z,1416
2023-02-11T13:58:43.282Z,1484
2023-02-11T14:00:00.387Z,1380
2023-02-11T14:01:17.491Z,1452
2023-02-11T14:02:34.596Z,1608
2023-02-11T14:03:51.701Z,1432
2023-02-11T14:05:08.806Z,1328
2023-02-11T14:06:25.912Z,1332
2023-02-11T14:07:43.016Z,1240
2023-02-11T14:09:00.121Z,1224
2023-02-11T14:10:17.226Z,1336
2023-02-11T14:11:34.330Z,1352
2023-02-11T14:12:51.436Z,1248
2023-02-11T14:14:07.556Z,1292
2023-02-11T14:15:24.661Z,1420
2023-02-11T14:16:41.766Z,1344
2023-02-11T14:17:58.870Z,1252
2023-02-11T14:19:15.975Z,1228
2023-02-11T14:20:33.080Z,1260
2023-02-11T14:21:50.185Z,1332
2023-02-11T14:23:07.291Z,1340
2023-02-11T14:24:24.396Z,1240
2023-02-11T14:25:41.500Z,1272
2023-02-11T14:26:58.605Z,1236
2023-02-11T14:28:15.710Z,1068
2023-02-11T14:29:32.815Z,1072
2023-02-11T14:30:48.936Z,1152
2023-02-11T14:32:06.040Z,1080
2023-02-11T14:33:23.145Z,1100
2023-02-11T14:34:40.250Z,1136
2023-02-11T14:35:57.355Z,1128
2023-02-11T14:37:14.460Z,1100
2023-02-11T14:38:31.564Z,1024
2023-02-11T14:39:48.669Z,948
2023-02-11T14:41:04.795Z,860
2023-02-11T14:42:21.900Z,944
2023-02-11T14:43:38.026Z,1028
2023-02-11T14:44:54.147Z,1044
2023-02-11T14:46:11.252Z,968
2023-02-11T14:47:28.357Z,860
2023-02-11T14:48:45.461Z,856
2023-02-11T14:50:02.566Z,828
2023-02-11T14:51:19.671Z,772
2023-02-11T14:52:36.776Z,864
2023-02-11T14:53:53.881Z,808
2023-02-11T14:55:10.985Z,740
2023-02-11T14:56:28.090Z,684
2023-02-11T14:57:45.195Z,656
2023-02-11T14:59:02.300Z,664
2023-02-11T15:00:19.405Z,684
2023-02-11T15:01:35.526Z,744
2023-02-11T15:02:52.630Z,712
2023-02-11T15:04:09.735Z,660
2023-02-11T15:05:26.840Z,660
2023-02-11T15:06:43.944Z,684
2023-02-11T15:08:01.049Z,664
2023-02-11T15:09:18.154Z,628
2023-02-11T15:10:35.259Z,604
2023-02-11T15:11:52.364Z,552
2023-02-11T15:13:09.468Z,540
2023-02-11T15:14:26.573Z,544
2023-02-11T15:15:43.678Z,568
2023-02-11T15:17:00.783Z,608
2023-02-11T15:18:16.904Z,584
2023-02-11T15:19:33.030Z,512
2023-02-11T15:20:49.151Z,520
2023-02-11T15:22:05.277Z,560
2023-02-11T15:23:21.397Z,532
2023-02-11T15:24:38.502Z,440
2023-02-11T15:25:55.607Z,448
2023-02-11T15:27:12.712Z,452
2023-02-11T15:28:29.817Z,472
2023-02-11T15:29:46.922Z,484
2023-02-11T15:31:04.026Z,436
2023-02-11T15:32:21.131Z,404
2023-02-11T15:33:38.236Z,400
2023-02-11T15:34:55.340Z,384
2023-02-11T15:36:12.445Z,356
2023-02-11T15:37:29.550Z,316
2023-02-11T15:38:46.655Z,300
2023-02-11T15:40:03.760Z,288
2023-02-11T15:41:19.880Z,292
2023-02-11T15:42:36.985Z,312
2023-02-11T15:43:54.090Z,296
2023-02-11T15:45:11.195Z,296
2023-02-11T15:46:28.299Z,284
2023-02-11T15:47:45.404Z,264
2023-02-11T15:49:02.509Z,264
2023-02-11T15:50:19.614Z,256
2023-02-11T15:51:36.719Z,244
2023-02-11T15:52:53.823Z,240
2023-02-11T15:54:10.928Z,232
2023-02-11T15:55:28.033Z,196
2023-02-11T15:56:45.137Z,176
2023-02-11T15:58:01.258Z,168
2023-02-11T15:59:18.363Z,160
2023-02-11T16:00:35.468Z,152
2023-02-11T16:01:52.573Z,156
2023-02-11T16:03:09.678Z,152
2023-02-11T16:04:26.783Z,156
2023-02-11T16:05:43.888Z,140
2023-02-11T16:07:00.992Z,136
2023-02-11T16:08:18.097Z,140
2023-02-11T16:09:35.202Z,144
2023-02-11T16:10:52.307Z,148
2023-02-11T16:12:09.412Z,144
2023-02-11T16:13:26.517Z,148
2023-02-11T16:14:42.637Z,144
2023-02-11T16:15:59.742Z,144
2023-02-11T16:17:16.847Z,144
2023-02-11T16:18:33.953Z,128
2023-02-11T16:19:51.057Z,104
2023-02-11T16:21:08.162Z,88
2023-02-11T16:22:25.265Z,84
2023-02-11T16:23:42.370Z,84
2023-02-11T16:24:59.475Z,80
2023-02-11T16:26:16.580Z,80
2023-02-11T16:27:33.685Z,76
2023-02-11T16:28:50.789Z,80
2023-02-11T16:31:24.020Z,60
2023-02-11T16:32:40.146Z,56
2023-02-11T16:33:56.267Z,64
2023-02-11T16:35:13.372Z,60
2023-02-11T16:36:29.498Z,44
2023-02-11T16:37:45.619Z,40
2023-02-11T16:39:02.724Z,36
2023-02-11T16:40:19.829Z,32
2023-02-11T16:41:36.934Z,32
2023-02-11T16:42:54.039Z,28
2023-02-11T16:44:11.141Z,28
2023-02-11T16:45:28.246Z,20
2023-02-11T16:46:45.351Z,20
2023-02-11T16:48:02.456Z,12
2023-02-11T16:49:19.560Z,12
2023-02-11T16:50:36.666Z,12
2023-02-11T16:51:53.770Z,12
2023-02-11T16:53:10.875Z,8
2023-02-11T16:54:26.996Z,4
2023-02-11T16:55:44.101Z,4
2023-02-11T16:57:01.206Z,4
2023-02-11T16:58:18.310Z,4
2023-02-11T16:59:35.415Z,4
2023-02-11T17:00:52.520Z,4
2023-02-11T17:02:09.625Z,0
2023-02-11T17:03:26.730Z,4
2023-02-11T17:04:43.835Z,0
2023-02-11T17:06:00.940Z,4
2023-02-11T17:07:18.044Z,4
2023-02-11T17:08:35.149Z,0
2023-02-11T17:09:52.254Z,0
2023-02-11T17:11:08.375Z,0
2023-02-11T17:12:25.480Z,0
2023-02-11T17:13:42.585Z,0
2023-02-11T17:14:59.690Z,0
2023-02-11T17:16:16.795Z,0
2023-02-11T17:17:33.899Z,0
2023-02-11T17:18:51.004Z,0
2023-02-11T17:20:08.109Z,0
2023-02-11T17:21:25.214Z,0
2023-02-11T17:22:42.318Z,0
2023-02-11T17:23:59.424Z,0
2023-02-11T17:25:16.528Z,0
2023-02-11T17:26:33.633Z,0
2023-02-11T17:27:49.754Z,0
2023-02-11T17:29:06.859Z,0
2023-02-11T17:30:23.964Z,0
2023-02-11T17:31:41.068Z,0
2023-02-11T17:32:58.173Z,0
2023-02-11T17:34:15.278Z,0
2023-02-11T17:35:32.383Z,0
2023-02-11T17:36:49.488Z,0
2023-02-11T17:38:06.593Z,0
2023-02-11T17:39:23.697Z,0
2023-02-11T17:40:40.802Z,0
2023-02-11T17:41:56.923Z,0
2023-02-11T17:43:14.028Z,0
2023-02-11T17:44:31.133Z,0
2023-02-11T17:45:48.237Z,0
2023-02-11T17:47:05.343Z,0
2023-02-11T17:48:22.447Z,0
2023-02-11T17:49:39.552Z,0
2023-02-11T17:50:56.657Z,0
2023-02-11T17:52:13.762Z,0
2023-02-11T17:53:29.888Z,0
2023-02-11T17:54:46.009Z,0
2023-02-11T17:56:02.135Z,0
2023-02-11T17:57:18.256Z,0
2023-02-11T17:58:35.361Z,0
2023-02-11T17:59:52.465Z,0
2023-02-11T18:01:09.570Z,0
2023-02-11T18:02:26.675Z,0
2023-02-11T18:03:43.780Z,0
2023-02-11T18:05:00.885Z,0
2023-02-11T18:06:17.989Z,0
2023-02-11T18:07:35.094Z,0
2023-02-11T18:08:52.199Z,0